Time;durP1;ratioP1;P1;durP2;ratioP2;P2;SDS_P1;SDS_P2;PMS_P1;PMS_P2;Temp;Humidity;BMP_temperature;BMP_pressure;BME280_temperature;BME280_humidity;BME280_pressure;Samples;Min_cycle;Max_cycle;Signal;HPM_P1;HPM_P2
2021/09/06 00:01:31;;;;;;;5.25;2.72;;;;;;;;;;5047433;28;20144;-79
2021/09/06 00:03:58;;;;;;;5.05;2.55;;;;;;;;;;5050018;28;20541;-79
2021/09/06 00:06:26;;;;;;;8.65;3.00;;;;;;;;;;5051262;28;20057;-79
2021/09/06 00:08:53;;;;;;;5.68;3.10;;;;;;;;;;5049393;28;20059;-79
2021/09/06 00:11:20;;;;;;;12.77;3.45;;;;;;;;;;5045024;28;20123;-79
2021/09/06 00:13:51;;;;;;;6.35;3.10;;;;;;;;;;5051871;28;20509;-80
2021/09/06 00:16:19;;;;;;;10.95;3.58;;;;;;;;;;5052083;28;20128;-80
2021/09/06 00:18:48;;;;;;;8.07;3.20;;;;;;;;;;5047308;28;20049;-79
2021/09/06 00:21:15;;;;;;;7.18;3.53;;;;;;;;;;5053194;28;20124;-79
2021/09/06 00:23:43;;;;;;;7.20;3.20;;;;;;;;;;5049690;28;20049;-79
2021/09/06 00:26:11;;;;;;;7.53;2.80;;;;;;;;;;5053187;28;20438;-79
2021/09/06 00:28:38;;;;;;;11.40;3.30;;;;;;;;;;5050993;28;20088;-80
2021/09/06 00:31:06;;;;;;;5.55;3.15;;;;;;;;;;5031796;28;20136;-79
2021/09/06 00:33:33;;;;;;;6.05;2.90;;;;;;;;;;5040513;28;20049;-79
2021/09/06 00:36:01;;;;;;;6.30;3.67;;;;;;;;;;5050036;28;20072;-79
2021/09/06 00:38:28;;;;;;;15.30;3.58;;;;;;;;;;5049680;28;20127;-78
2021/09/06 00:40:55;;;;;;;8.95;4.13;;;;;;;;;;5040789;28;20088;-78
2021/09/06 00:43:22;;;;;;;7.38;4.20;;;;;;;;;;5045281;28;20132;-78
2021/09/06 00:45:50;;;;;;;5.72;2.83;;;;;;;;;;5049493;28;20648;-78
2021/09/06 00:48:18;;;;;;;6.50;3.28;;;;;;;;;;5043386;28;20050;-78
2021/09/06 00:50:47;;;;;;;6.03;3.38;;;;;;;;;;5047783;28;20049;-79
2021/09/06 00:53:14;;;;;;;6.88;3.15;;;;;;;;;;5049324;28;20053;-78
2021/09/06 00:55:42;;;;;;;7.45;3.38;;;;;;;;;;5057699;28;20186;-79
2021/09/06 00:58:09;;;;;;;5.50;3.20;;;;;;;;;;5044807;28;20132;-78
2021/09/06 01:00:38;;;;;;;7.15;3.00;;;;;;;;;;5050136;28;20095;-78
2021/09/06 01:03:07;;;;;;;6.75;3.03;;;;;;;;;;5049070;28;20045;-78
2021/09/06 01:05:35;;;;;;;11.18;3.47;;;;;;;;;;5049925;28;20636;-79
2021/09/06 01:08:02;;;;;;;13.48;3.45;;;;;;;;;;5048516;28;20108;-78
2021/09/06 01:10:29;;;;;;;8.43;3.38;;;;;;;;;;5042549;28;20053;-79
2021/09/06 01:12:58;;;;;;;7.10;3.10;;;;;;;;;;5045452;28;20131;-79
2021/09/06 01:15:26;;;;;;;8.73;3.33;;;;;;;;;;5048476;28;20571;-79
2021/09/06 01:17:53;;;;;;;7.70;3.42;;;;;;;;;;5043394;28;20467;-80
2021/09/06 01:20:20;;;;;;;5.72;3.40;;;;;;;;;;5043179;28;20091;-79
2021/09/06 01:22:48;;;;;;;5.90;3.20;;;;;;;;;;5046422;28;20080;-79
2021/09/06 01:25:16;;;;;;;7.35;3.53;;;;;;;;;;5045082;28;20057;-79
2021/09/06 01:27:44;;;;;;;15.77;4.10;;;;;;;;;;5047939;28;20471;-79
2021/09/06 01:30:13;;;;;;;6.72;2.95;;;;;;;;;;5048741;28;20131;-79
2021/09/06 01:32:40;;;;;;;8.30;4.05;;;;;;;;;;5046346;28;20144;-79
2021/09/06 01:35:07;;;;;;;7.72;3.97;;;;;;;;;;5046090;28;20052;-80
2021/09/06 01:37:37;;;;;;;7.70;4.10;;;;;;;;;;5044114;28;20049;-79
2021/09/06 01:40:04;;;;;;;8.40;3.90;;;;;;;;;;5037224;28;20740;-79
2021/09/06 01:42:32;;;;;;;9.13;3.80;;;;;;;;;;5032482;28;20123;-79
2021/09/06 01:45:01;;;;;;;7.13;3.63;;;;;;;;;;5041378;28;20067;-79
2021/09/06 01:47:30;;;;;;;6.70;3.28;;;;;;;;;;5045804;28;20063;-79
2021/09/06 01:49:57;;;;;;;5.78;3.10;;;;;;;;;;5045251;28;20132;-79
2021/09/06 01:52:25;;;;;;;9.95;3.75;;;;;;;;;;5045559;28;20440;-79
2021/09/06 01:54:52;;;;;;;5.53;3.55;;;;;;;;;;5041083;28;20151;-79
2021/09/06 01:57:19;;;;;;;6.75;3.55;;;;;;;;;;5046069;28;20540;-79
2021/09/06 01:59:46;;;;;;;5.10;3.17;;;;;;;;;;5039179;28;20124;-79
2021/09/06 02:02:13;;;;;;;6.75;3.58;;;;;;;;;;5047665;28;20063;-79
2021/09/06 02:04:41;;;;;;;5.88;3.13;;;;;;;;;;5037353;28;20087;-79
2021/09/06 02:07:08;;;;;;;4.50;2.90;;;;;;;;;;5039842;28;20088;-79
2021/09/06 02:09:35;;;;;;;11.82;3.58;;;;;;;;;;5038128;28;20132;-79
2021/09/06 02:12:03;;;;;;;5.75;3.22;;;;;;;;;;5034757;28;20128;-79
2021/09/06 02:14:30;;;;;;;10.13;3.78;;;;;;;;;;5047707;28;20135;-79
2021/09/06 02:16:57;;;;;;;6.20;2.80;;;;;;;;;;5047554;28;20082;-79
2021/09/06 02:19:25;;;;;;;6.18;2.97;;;;;;;;;;5047583;28;20128;-79
2021/09/06 02:21:52;;;;;;;5.90;3.00;;;;;;;;;;5049673;28;20087;-79
2021/09/06 02:24:19;;;;;;;7.57;3.47;;;;;;;;;;5048058;28;20106;-79
2021/09/06 02:26:46;;;;;;;6.18;3.20;;;;;;;;;;5047620;28;20041;-79
2021/09/06 02:29:13;;;;;;;10.13;2.92;;;;;;;;;;5041451;28;20459;-79
2021/09/06 02:31:44;;;;;;;6.72;3.67;;;;;;;;;;5038942;28;20084;-79
2021/09/06 02:34:11;;;;;;;7.15;3.35;;;;;;;;;;5047553;28;20148;-79
2021/09/06 02:36:38;;;;;;;10.52;3.22;;;;;;;;;;5048634;28;20099;-78
2021/09/06 02:39:06;;;;;;;7.28;3.10;;;;;;;;;;5042714;28;20136;-79
2021/09/06 02:41:33;;;;;;;7.38;3.75;;;;;;;;;;5043618;28;20141;-79
2021/09/06 02:44:00;;;;;;;8.68;3.17;;;;;;;;;;5062073;28;20099;-79
2021/09/06 02:46:27;;;;;;;6.72;3.17;;;;;;;;;;5042250;28;20460;-79
2021/09/06 02:48:55;;;;;;;5.90;2.95;;;;;;;;;;5046787;28;20044;-79
2021/09/06 02:51:22;;;;;;;7.32;3.38;;;;;;;;;;5038532;28;20565;-79
2021/09/06 02:53:49;;;;;;;6.18;3.40;;;;;;;;;;5047052;28;20123;-79
2021/09/06 02:56:16;;;;;;;6.47;3.03;;;;;;;;;;5045896;28;20080;-79
2021/09/06 02:58:43;;;;;;;5.40;2.83;;;;;;;;;;5044091;28;20401;-79
2021/09/06 03:01:14;;;;;;;12.27;3.58;;;;;;;;;;5046905;28;20045;-79
2021/09/06 03:03:41;;;;;;;4.05;2.55;;;;;;;;;;5045771;28;20058;-79
2021/09/06 03:06:09;;;;;;;12.75;3.70;;;;;;;;;;5042341;28;20047;-79
2021/09/06 03:08:36;;;;;;;7.45;3.75;;;;;;;;;;5045763;28;20053;-79
2021/09/06 03:11:03;;;;;;;9.68;3.75;;;;;;;;;;5035504;28;20132;-79
2021/09/06 03:13:31;;;;;;;12.90;3.88;;;;;;;;;;5042576;28;20073;-79
2021/09/06 03:15:58;;;;;;;9.20;3.85;;;;;;;;;;5042963;28;20698;-79
2021/09/06 03:18:25;;;;;;;7.65;4.20;;;;;;;;;;5041004;28;20046;-79
2021/09/06 03:20:52;;;;;;;7.90;4.50;;;;;;;;;;5046394;28;20143;-79
2021/09/06 03:23:19;;;;;;;11.32;4.60;;;;;;;;;;5045616;28;20116;-79
2021/09/06 03:25:47;;;;;;;12.48;4.55;;;;;;;;;;5039017;28;20673;-79
2021/09/06 03:28:14;;;;;;;9.98;4.97;;;;;;;;;;5042001;28;20059;-79
2021/09/06 03:30:41;;;;;;;11.88;4.45;;;;;;;;;;5033886;28;20565;-79
2021/09/06 03:33:13;;;;;;;8.93;4.80;;;;;;;;;;5044052;28;20073;-79
2021/09/06 03:35:42;;;;;;;14.43;4.80;;;;;;;;;;5043685;28;20577;-79
2021/09/06 03:38:10;;;;;;;8.40;3.75;;;;;;;;;;5041939;28;20161;-79
2021/09/06 03:40:38;;;;;;;7.45;3.88;;;;;;;;;;5043097;28;20111;-79
2021/09/06 03:43:05;;;;;;;7.75;3.72;;;;;;;;;;5045597;28;20448;-79
2021/09/06 03:45:32;;;;;;;6.28;3.60;;;;;;;;;;5045424;28;20199;-79
2021/09/06 03:47:59;;;;;;;5.82;3.15;;;;;;;;;;5044399;28;20124;-79
2021/09/06 03:50:27;;;;;;;11.27;3.63;;;;;;;;;;5045348;28;20136;-79
2021/09/06 03:52:54;;;;;;;9.23;3.03;;;;;;;;;;5045061;28;20141;-79
2021/09/06 03:55:21;;;;;;;5.28;2.97;;;;;;;;;;5047290;28;20053;-79
2021/09/06 03:57:48;;;;;;;7.60;3.38;;;;;;;;;;5039526;28;20109;-79
2021/09/06 04:00:16;;;;;;;4.38;2.80;;;;;;;;;;5036230;28;20124;-79
2021/09/06 04:02:43;;;;;;;7.38;3.28;;;;;;;;;;5050056;28;20140;-79
2021/09/06 04:05:12;;;;;;;8.63;3.30;;;;;;;;;;5046350;28;20477;-79
2021/09/06 04:07:39;;;;;;;8.73;3.80;;;;;;;;;;5047401;28;20072;-79
2021/09/06 04:10:20;;;;;;;7.18;3.80;;;;;;;;;;4999519;22;20050;-78
2021/09/06 04:12:47;;;;;;;11.70;3.90;;;;;;;;;;5006626;28;20808;-78
2021/09/06 04:15:14;;;;;;;9.65;3.50;;;;;;;;;;5006439;28;20062;-79
2021/09/06 04:17:42;;;;;;;6.85;3.50;;;;;;;;;;5005341;28;20100;-79
2021/09/06 04:20:10;;;;;;;10.00;4.10;;;;;;;;;;5001203;28;20126;-79
2021/09/06 04:22:39;;;;;;;9.95;3.88;;;;;;;;;;4997169;28;20600;-78
2021/09/06 04:25:07;;;;;;;6.75;3.55;;;;;;;;;;5002949;28;20056;-78
2021/09/06 04:27:36;;;;;;;4.72;3.20;;;;;;;;;;5004865;28;20061;-79
2021/09/06 04:30:04;;;;;;;8.70;3.58;;;;;;;;;;4998211;28;20096;-79
2021/09/06 04:32:32;;;;;;;7.50;3.25;;;;;;;;;;5002781;28;20092;-79
2021/09/06 04:34:59;;;;;;;10.32;4.38;;;;;;;;;;5002193;28;20046;-79
2021/09/06 04:37:26;;;;;;;9.38;3.83;;;;;;;;;;5005678;28;20128;-79
2021/09/06 04:39:53;;;;;;;6.38;3.63;;;;;;;;;;4998764;28;20474;-79
2021/09/06 04:42:22;;;;;;;11.43;4.20;;;;;;;;;;5005365;28;20093;-80
2021/09/06 04:44:52;;;;;;;8.23;3.58;;;;;;;;;;5006443;28;20050;-80
2021/09/06 04:47:20;;;;;;;6.45;3.75;;;;;;;;;;5007275;28;20153;-81
2021/09/06 04:49:47;;;;;;;8.77;4.15;;;;;;;;;;4998578;28;20086;-79
2021/09/06 04:52:27;;;;;;;5.82;3.40;;;;;;;;;;5000524;28;20699;-80
2021/09/06 04:54:54;;;;;;;8.75;3.67;;;;;;;;;;5012127;28;20099;-85
2021/09/06 04:57:22;;;;;;;7.70;3.72;;;;;;;;;;5010877;28;20112;-79
2021/09/06 05:00:01;;;;;;;10.07;3.65;;;;;;;;;;5003134;28;20136;-83
2021/09/06 05:02:31;;;;;;;9.88;4.40;;;;;;;;;;5012893;28;20056;-84
2021/09/06 05:04:58;;;;;;;11.75;4.22;;;;;;;;;;5012069;28;20046;-83
2021/09/06 05:07:25;;;;;;;8.38;4.00;;;;;;;;;;5012346;28;20129;-81
2021/09/06 05:09:52;;;;;;;13.68;4.38;;;;;;;;;;5019990;28;20085;-80
2021/09/06 05:12:22;;;;;;;14.18;4.28;;;;;;;;;;5013599;28;20057;-81
2021/09/06 05:14:49;;;;;;;22.58;6.15;;;;;;;;;;5032470;28;20053;-80
2021/09/06 05:17:16;;;;;;;13.45;5.18;;;;;;;;;;5009803;28;20218;-79
2021/09/06 05:19:43;;;;;;;22.45;5.25;;;;;;;;;;5029498;28;20083;-79
2021/09/06 05:22:10;;;;;;;19.80;5.97;;;;;;;;;;5014638;28;20464;-81
2021/09/06 05:24:40;;;;;;;9.95;5.38;;;;;;;;;;5039834;28;20133;-82
2021/09/06 05:27:09;;;;;;;13.93;5.38;;;;;;;;;;5015390;28;20128;-83
2021/09/06 05:29:38;;;;;;;13.52;5.55;;;;;;;;;;5018488;28;20404;-81
2021/09/06 05:32:06;;;;;;;12.98;5.47;;;;;;;;;;5014322;28;20514;-82
2021/09/06 05:34:33;;;;;;;11.52;5.07;;;;;;;;;;5032173;28;20081;-86
2021/09/06 05:37:00;;;;;;;14.70;4.70;;;;;;;;;;5014476;28;20077;-82
2021/09/06 05:39:27;;;;;;;11.02;5.50;;;;;;;;;;5013465;28;20052;-81
2021/09/06 05:42:00;;;;;;;15.20;5.35;;;;;;;;;;5031812;28;20132;-81
2021/09/06 05:44:29;;;;;;;12.88;4.90;;;;;;;;;;5024826;28;20562;-81
2021/09/06 05:46:56;;;;;;;13.77;4.90;;;;;;;;;;5030634;28;20073;-81
2021/09/06 05:49:23;;;;;;;22.50;8.00;;;;;;;;;;5014154;28;20103;-82
2021/09/06 05:51:54;;;;;;;28.90;8.38;;;;;;;;;;5014295;28;20089;-81
2021/09/06 05:54:21;;;;;;;21.42;6.47;;;;;;;;;;5012208;28;20081;-81
2021/09/06 05:56:49;;;;;;;21.00;6.57;;;;;;;;;;5009709;28;20112;-81
2021/09/06 05:59:16;;;;;;;13.98;5.95;;;;;;;;;;5020935;28;20077;-82
2021/09/06 06:01:43;;;;;;;18.13;6.20;;;;;;;;;;5030856;28;20477;-82
2021/09/06 06:04:11;;;;;;;22.95;5.75;;;;;;;;;;5014237;28;20103;-82
2021/09/06 06:06:40;;;;;;;18.42;6.05;;;;;;;;;;5013644;28;20131;-82
2021/09/06 06:09:08;;;;;;;16.63;6.00;;;;;;;;;;5007678;28;20092;-82
2021/09/06 06:11:38;;;;;;;15.93;5.85;;;;;;;;;;5013477;28;20116;-81
2021/09/06 06:14:05;;;;;;;16.45;5.38;;;;;;;;;;5031480;28;20049;-81
2021/09/06 06:16:33;;;;;;;11.65;5.40;;;;;;;;;;5011104;28;20145;-82
2021/09/06 06:19:03;;;;;;;21.77;6.30;;;;;;;;;;5019286;28;20049;-81
2021/09/06 06:21:31;;;;;;;16.42;5.32;;;;;;;;;;5014120;28;20152;-82
2021/09/06 06:24:01;;;;;;;12.80;5.38;;;;;;;;;;5013565;28;20080;-82
2021/09/06 06:26:30;;;;;;;14.73;5.57;;;;;;;;;;5014130;28;20133;-82
2021/09/06 06:28:59;;;;;;;10.70;4.63;;;;;;;;;;5001076;28;20076;-82
2021/09/06 06:31:26;;;;;;;9.90;4.80;;;;;;;;;;5014229;28;20053;-82
2021/09/06 06:34:00;;;;;;;11.27;5.07;;;;;;;;;;5013627;28;20050;-82
2021/09/06 06:36:27;;;;;;;21.65;5.22;;;;;;;;;;5030989;28;20136;-82
2021/09/06 06:39:11;;;;;;;12.88;5.28;;;;;;;;;;5031350;28;20045;-80
2021/09/06 06:41:38;;;;;;;9.75;4.90;;;;;;;;;;5005398;28;20050;-80
2021/09/06 06:44:06;;;;;;;8.57;4.70;;;;;;;;;;5030262;28;20042;-80
2021/09/06 06:46:33;;;;;;;12.50;4.60;;;;;;;;;;5010581;28;20084;-80
2021/09/06 06:49:00;;;;;;;10.57;4.70;;;;;;;;;;5000685;28;20056;-80
2021/09/06 06:51:28;;;;;;;13.32;5.00;;;;;;;;;;5014312;28;20096;-80
2021/09/06 06:53:55;;;;;;;9.57;4.40;;;;;;;;;;5029849;28;20125;-80
2021/09/06 06:56:22;;;;;;;17.98;5.18;;;;;;;;;;5022917;28;20092;-81
2021/09/06 06:58:49;;;;;;;11.40;5.00;;;;;;;;;;5014950;28;20099;-81
2021/09/06 07:01:16;;;;;;;11.93;5.30;;;;;;;;;;5013641;28;20136;-80
2021/09/06 07:03:45;;;;;;;12.18;5.28;;;;;;;;;;5013223;28;20085;-80
2021/09/06 07:06:12;;;;;;;14.98;5.00;;;;;;;;;;5012598;28;20095;-81
2021/09/06 07:08:39;;;;;;;5.75;3.67;;;;;;;;;;5010877;28;20069;-81
2021/09/06 07:11:12;;;;;;;7.53;4.18;;;;;;;;;;5008526;28;20100;-81
2021/09/06 07:13:41;;;;;;;11.98;4.85;;;;;;;;;;5027539;28;20055;-80
2021/09/06 07:16:08;;;;;;;10.70;4.50;;;;;;;;;;5008719;28;20080;-80
2021/09/06 07:18:35;;;;;;;8.15;4.40;;;;;;;;;;5025695;28;20092;-81
2021/09/06 07:21:03;;;;;;;7.40;4.35;;;;;;;;;;5014234;28;20136;-81
2021/09/06 07:23:36;;;;;;;11.43;4.93;;;;;;;;;;5023281;28;20081;-81
2021/09/06 07:26:03;;;;;;;8.98;3.88;;;;;;;;;;5022773;28;20092;-81
2021/09/06 07:28:30;;;;;;;12.18;4.53;;;;;;;;;;5020486;28;20084;-82
2021/09/06 07:30:58;;;;;;;13.32;4.70;;;;;;;;;;5013009;28;20088;-83
2021/09/06 07:33:26;;;;;;;12.57;4.57;;;;;;;;;;5030251;28;20088;-83
2021/09/06 07:35:53;;;;;;;13.40;4.75;;;;;;;;;;5009472;28;20133;-83
2021/09/06 07:38:23;;;;;;;16.58;5.25;;;;;;;;;;5019518;28;20045;-83
2021/09/06 07:40:50;;;;;;;13.48;5.15;;;;;;;;;;5011122;28;20203;-83
2021/09/06 07:43:20;;;;;;;10.23;4.80;;;;;;;;;;5012811;28;20054;-83
2021/09/06 07:45:47;;;;;;;10.07;4.45;;;;;;;;;;5012809;28;20133;-84
2021/09/06 07:48:15;;;;;;;10.32;4.32;;;;;;;;;;5026105;28;20049;-84
2021/09/06 07:50:44;;;;;;;14.07;4.75;;;;;;;;;;5013166;28;20420;-83
2021/09/06 07:53:11;;;;;;;13.43;5.35;;;;;;;;;;5030137;28;20129;-81
2021/09/06 07:55:38;;;;;;;13.13;4.90;;;;;;;;;;5008551;28;20150;-82
2021/09/06 07:58:06;;;;;;;9.60;4.30;;;;;;;;;;5030225;28;20085;-82
2021/09/06 08:00:33;;;;;;;18.08;5.03;;;;;;;;;;5013107;28;20045;-82
2021/09/06 08:03:01;;;;;;;10.52;4.45;;;;;;;;;;5012393;28;20045;-82
2021/09/06 08:05:29;;;;;;;10.18;4.50;;;;;;;;;;5029895;28;20457;-82
2021/09/06 08:07:57;;;;;;;10.73;4.05;;;;;;;;;;5014771;28;20526;-82
2021/09/06 08:10:24;;;;;;;8.02;4.53;;;;;;;;;;5026702;28;20136;-82
2021/09/06 08:12:53;;;;;;;9.60;4.35;;;;;;;;;;5012630;28;20097;-82
2021/09/06 08:15:20;;;;;;;7.20;4.20;;;;;;;;;;5010400;28;20108;-82
2021/09/06 08:17:48;;;;;;;10.82;4.40;;;;;;;;;;5008002;28;20129;-82
2021/09/06 08:20:16;;;;;;;10.07;4.82;;;;;;;;;;5013631;28;20137;-82
2021/09/06 08:22:50;;;;;;;9.73;4.43;;;;;;;;;;5020789;28;20469;-82
2021/09/06 08:25:17;;;;;;;9.98;4.80;;;;;;;;;;5014555;28;20124;-82
2021/09/06 08:27:45;;;;;;;12.98;5.18;;;;;;;;;;4997096;28;20558;-83
2021/09/06 08:30:13;;;;;;;11.82;5.05;;;;;;;;;;5012874;28;20132;-82
2021/09/06 08:32:43;;;;;;;28.30;7.13;;;;;;;;;;5014551;28;20089;-82
2021/09/06 08:35:12;;;;;;;17.10;5.20;;;;;;;;;;5033941;28;20120;-82
2021/09/06 08:37:39;;;;;;;9.77;4.93;;;;;;;;;;5015798;28;20140;-82
2021/09/06 08:40:08;;;;;;;12.70;5.22;;;;;;;;;;5033323;28;20091;-84
2021/09/06 08:42:37;;;;;;;12.25;5.13;;;;;;;;;;5015712;28;20713;-82
2021/09/06 08:45:08;;;;;;;7.72;5.32;;;;;;;;;;4997722;28;20120;-82
2021/09/06 08:47:37;;;;;;;9.85;5.38;;;;;;;;;;5027409;28;20050;-82
2021/09/06 08:50:05;;;;;;;10.93;5.32;;;;;;;;;;5023749;28;20531;-82
2021/09/06 08:52:33;;;;;;;11.18;5.20;;;;;;;;;;5033536;28;20133;-82
2021/09/06 08:55:00;;;;;;;8.63;4.70;;;;;;;;;;5016250;28;20133;-82
2021/09/06 08:57:29;;;;;;;13.73;5.32;;;;;;;;;;5015885;28;20057;-82
2021/09/06 08:59:57;;;;;;;20.27;6.15;;;;;;;;;;5015489;28;20064;-82
2021/09/06 09:02:27;;;;;;;11.80;5.93;;;;;;;;;;5016303;28;20080;-82
2021/09/06 09:05:20;;;;;;;8.25;5.22;;;;;;;;;;5016119;28;20132;-82
2021/09/06 09:07:48;;;;;;;9.82;4.82;;;;;;;;;;5029018;28;20152;-82
2021/09/06 09:10:25;;;;;;;9.25;5.20;;;;;;;;;;5027897;28;20085;-82
2021/09/06 09:13:02;;;;;;;9.05;5.13;;;;;;;;;;5033300;28;20054;-82
2021/09/06 09:15:29;;;;;;;10.15;5.43;;;;;;;;;;5015159;28;20857;-82
2021/09/06 09:17:56;;;;;;;12.20;5.43;;;;;;;;;;5015488;28;20553;-82
2021/09/06 09:20:46;;;;;;;19.42;6.30;;;;;;;;;;5013543;28;20590;-82
2021/09/06 09:23:13;;;;;;;13.27;5.40;;;;;;;;;;4995746;28;20140;-82
2021/09/06 09:25:44;;;;;;;9.00;5.05;;;;;;;;;;4998299;28;20041;-81
2021/09/06 09:28:11;;;;;;;8.73;4.93;;;;;;;;;;5033292;28;20077;-82
2021/09/06 09:30:41;;;;;;;9.30;4.90;;;;;;;;;;5001303;28;20160;-83
2021/09/06 09:33:09;;;;;;;15.20;5.88;;;;;;;;;;5002219;28;20049;-82
2021/09/06 09:35:37;;;;;;;18.23;5.53;;;;;;;;;;4996874;28;20616;-82
2021/09/06 09:38:07;;;;;;;16.23;5.40;;;;;;;;;;5004934;28;20577;-82
2021/09/06 09:40:36;;;;;;;9.13;5.07;;;;;;;;;;5015970;28;20077;-82
2021/09/06 09:43:03;;;;;;;11.32;4.68;;;;;;;;;;5031894;28;20128;-82
2021/09/06 09:45:30;;;;;;;28.20;6.75;;;;;;;;;;5015030;28;20046;-83
2021/09/06 09:47:58;;;;;;;10.68;5.55;;;;;;;;;;5015241;28;20129;-83
2021/09/06 09:50:28;;;;;;;14.65;5.60;;;;;;;;;;5015308;28;20060;-83
2021/09/06 09:52:55;;;;;;;8.90;4.72;;;;;;;;;;5032436;28;20087;-83
2021/09/06 09:55:24;;;;;;;11.63;5.13;;;;;;;;;;5015101;28;20081;-82
2021/09/06 09:57:51;;;;;;;8.80;4.57;;;;;;;;;;5013648;28;20107;-82
2021/09/06 10:00:19;;;;;;;8.07;4.60;;;;;;;;;;5029034;28;20049;-82
2021/09/06 10:02:51;;;;;;;12.57;5.28;;;;;;;;;;5011665;28;20085;-83
2021/09/06 10:05:22;;;;;;;13.77;4.90;;;;;;;;;;5029905;28;20132;-83
2021/09/06 10:07:50;;;;;;;8.65;4.75;;;;;;;;;;5015192;28;20128;-83
2021/09/06 10:10:21;;;;;;;18.73;5.72;;;;;;;;;;5013553;28;20056;-83
2021/09/06 10:13:09;;;;;;;9.90;5.07;;;;;;;;;;5031871;28;20084;-83
2021/09/06 10:15:37;;;;;;;10.73;5.32;;;;;;;;;;5011244;28;20808;-83
2021/09/06 10:18:17;;;;;;;9.75;5.03;;;;;;;;;;5003198;28;20041;-82
2021/09/06 10:20:45;;;;;;;7.88;4.90;;;;;;;;;;5011651;28;20408;-82
2021/09/06 10:23:13;;;;;;;10.43;4.57;;;;;;;;;;5010719;28;20045;-82
2021/09/06 10:25:42;;;;;;;10.05;4.82;;;;;;;;;;5014677;28;20411;-83
2021/09/06 10:28:12;;;;;;;10.98;5.00;;;;;;;;;;5031783;28;20080;-83
2021/09/06 10:30:43;;;;;;;10.18;6.85;;;;;;;;;;5012544;28;20082;-84
2021/09/06 10:33:26;;;;;;;9.05;4.57;;;;;;;;;;5007048;28;20129;-83
2021/09/06 10:36:03;;;;;;;9.38;4.82;;;;;;;;;;4994843;28;20157;-83
2021/09/06 10:38:37;;;;;;;8.10;4.70;;;;;;;;;;5007619;28;20466;-83
2021/09/06 10:41:10;;;;;;;11.70;4.50;;;;;;;;;;5014031;28;20045;-82
2021/09/06 10:43:53;;;;;;;8.63;4.13;;;;;;;;;;5031333;28;20128;-83
2021/09/06 10:46:28;;;;;;;14.98;5.15;;;;;;;;;;4996619;28;20479;-83
2021/09/06 10:49:01;;;;;;;13.45;4.93;;;;;;;;;;5011554;28;20057;-83
2021/09/06 10:51:30;;;;;;;10.52;4.40;;;;;;;;;;5004027;28;20057;-83
2021/09/06 10:53:59;;;;;;;18.40;5.00;;;;;;;;;;5030955;28;20061;-83
2021/09/06 10:56:27;;;;;;;11.43;5.35;;;;;;;;;;5013924;28;20099;-83
2021/09/06 10:58:55;;;;;;;8.38;4.10;;;;;;;;;;5031370;28;20103;-83
2021/09/06 11:01:22;;;;;;;17.77;4.70;;;;;;;;;;5013405;28;20555;-83
2021/09/06 11:03:50;;;;;;;14.73;5.32;;;;;;;;;;5013113;28;20445;-82
2021/09/06 11:06:19;;;;;;;17.45;5.63;;;;;;;;;;5013778;28;20068;-83
2021/09/06 11:08:46;;;;;;;14.02;4.88;;;;;;;;;;5008666;28;20072;-82
2021/09/06 11:11:13;;;;;;;14.68;5.38;;;;;;;;;;5025066;28;20085;-82
2021/09/06 11:13:47;;;;;;;10.60;5.18;;;;;;;;;;5030320;28;20490;-82
2021/09/06 11:16:16;;;;;;;11.38;4.60;;;;;;;;;;5031011;28;20085;-83
2021/09/06 11:18:50;;;;;;;9.52;5.03;;;;;;;;;;5012572;28;20492;-82
2021/09/06 11:21:21;;;;;;;11.40;5.40;;;;;;;;;;5013438;28;20088;-82
2021/09/06 11:23:49;;;;;;;12.82;5.93;;;;;;;;;;5013593;28;20057;-83
2021/09/06 11:26:33;;;;;;;9.60;4.75;;;;;;;;;;5013589;28;20124;-83
2021/09/06 11:29:01;;;;;;;10.13;5.30;;;;;;;;;;5013359;28;20069;-82
2021/09/06 11:31:28;;;;;;;7.93;5.05;;;;;;;;;;5013580;28;20549;-82
2021/09/06 11:34:00;;;;;;;14.65;5.57;;;;;;;;;;5029859;28;20132;-82
2021/09/06 11:36:27;;;;;;;12.73;6.80;;;;;;;;;;5011294;28;20490;-83
2021/09/06 11:38:54;;;;;;;18.60;5.60;;;;;;;;;;5009914;28;20131;-84
2021/09/06 11:41:22;;;;;;;9.40;5.32;;;;;;;;;;5015751;28;20049;-83
2021/09/06 11:43:50;;;;;;;7.20;4.60;;;;;;;;;;5013086;28;20672;-84
2021/09/06 11:46:18;;;;;;;11.50;5.35;;;;;;;;;;5012933;28;20041;-81
2021/09/06 11:48:46;;;;;;;14.55;5.22;;;;;;;;;;5022605;28;20057;-82
2021/09/06 11:51:16;;;;;;;10.77;5.50;;;;;;;;;;5012792;28;20440;-82
2021/09/06 11:54:02;;;;;;;14.02;5.80;;;;;;;;;;5011236;28;20525;-83
2021/09/06 11:56:30;;;;;;;9.82;5.07;;;;;;;;;;5018027;28;20206;-81
2021/09/06 11:59:02;;;;;;;13.20;6.03;;;;;;;;;;5010743;28;20053;-81
2021/09/06 12:01:31;;;;;;;11.63;5.40;;;;;;;;;;5015465;28;20080;-82
2021/09/06 12:04:13;;;;;;;21.05;5.25;;;;;;;;;;5015336;28;20058;-82
2021/09/06 12:06:43;;;;;;;13.35;5.03;;;;;;;;;;5008758;28;20052;-82
2021/09/06 12:09:12;;;;;;;10.20;5.55;;;;;;;;;;5013563;28;20046;-81
2021/09/06 12:11:51;;;;;;;12.82;5.65;;;;;;;;;;5028953;28;20068;-82
2021/09/06 12:14:18;;;;;;;11.00;5.22;;;;;;;;;;5034852;28;20057;-82
2021/09/06 12:16:56;;;;;;;12.13;5.72;;;;;;;;;;5034140;28;20085;-81
2021/09/06 12:19:25;;;;;;;10.65;5.82;;;;;;;;;;5015454;28;20525;-82
2021/09/06 12:21:53;;;;;;;7.82;5.32;;;;;;;;;;5015376;28;20076;-85
2021/09/06 12:24:22;;;;;;;13.88;6.28;;;;;;;;;;5034816;28;20130;-82
2021/09/06 12:26:51;;;;;;;17.38;4.95;;;;;;;;;;5033890;28;20058;-82
2021/09/06 12:29:27;;;;;;;12.82;6.03;;;;;;;;;;5016129;28;20490;-82
2021/09/06 12:31:54;;;;;;;11.65;5.40;;;;;;;;;;5034027;28;20064;-82
2021/09/06 12:34:21;;;;;;;10.32;5.90;;;;;;;;;;5016663;28;20156;-88
2021/09/06 12:36:49;;;;;;;66.80;11.98;;;;;;;;;;5046412;28;20108;-88
2021/09/06 12:39:17;;;;;;;27.38;7.65;;;;;;;;;;5013473;28;20104;-88
2021/09/06 12:41:44;;;;;;;9.88;5.00;;;;;;;;;;5012389;28;20460;-89
2021/09/06 12:44:11;;;;;;;12.45;5.80;;;;;;;;;;5029453;28;20557;-89
2021/09/06 12:46:38;;;;;;;33.47;8.68;;;;;;;;;;5029587;28;20136;-88
2021/09/06 12:49:06;;;;;;;8.85;5.25;;;;;;;;;;5044924;28;20132;-84
2021/09/06 12:51:34;;;;;;;11.75;5.88;;;;;;;;;;5030003;28;20054;-82
2021/09/06 12:54:01;;;;;;;11.13;5.70;;;;;;;;;;5031811;28;20115;-80
2021/09/06 12:56:28;;;;;;;16.20;6.70;;;;;;;;;;5031302;28;20390;-82
2021/09/06 12:58:55;;;;;;;10.13;5.38;;;;;;;;;;5013197;28;20117;-81
2021/09/06 13:01:22;;;;;;;11.18;5.85;;;;;;;;;;5032002;28;20673;-82
2021/09/06 13:03:50;;;;;;;7.03;4.97;;;;;;;;;;5032024;28;20056;-85
2021/09/06 13:06:17;;;;;;;7.95;5.05;;;;;;;;;;5011680;28;20046;-84
2021/09/06 13:08:52;;;;;;;10.50;5.68;;;;;;;;;;5031829;28;20092;-85
2021/09/06 13:11:19;;;;;;;10.18;5.25;;;;;;;;;;5032384;28;20061;-85
2021/09/06 13:13:46;;;;;;;8.73;5.38;;;;;;;;;;5014180;28;20049;-80
2021/09/06 13:16:13;;;;;;;10.55;5.53;;;;;;;;;;5033136;28;20057;-83
2021/09/06 13:18:41;;;;;;;15.15;5.68;;;;;;;;;;5035168;28;20107;-81
2021/09/06 13:21:10;;;;;;;9.05;5.05;;;;;;;;;;5021319;28;20556;-82
2021/09/06 13:23:37;;;;;;;13.48;6.38;;;;;;;;;;5015795;28;20087;-82
2021/09/06 13:26:11;;;;;;;10.98;5.90;;;;;;;;;;5015081;28;20548;-80
2021/09/06 13:28:41;;;;;;;12.48;7.20;;;;;;;;;;5035595;28;20045;-83
2021/09/06 13:31:10;;;;;;;10.10;6.50;;;;;;;;;;5015582;28;20087;-83
2021/09/06 13:33:37;;;;;;;35.63;8.32;;;;;;;;;;5041096;28;20053;-81
2021/09/06 13:36:05;;;;;;;11.65;6.00;;;;;;;;;;5033485;28;20053;-84
2021/09/06 13:38:33;;;;;;;11.23;5.82;;;;;;;;;;5043064;28;20092;-85
2021/09/06 13:41:01;;;;;;;14.95;7.22;;;;;;;;;;5015837;28;20041;-86
2021/09/06 13:43:29;;;;;;;17.00;7.72;;;;;;;;;;5033369;28;20073;-85
2021/09/06 13:45:57;;;;;;;15.30;6.68;;;;;;;;;;5012720;28;20049;-88
2021/09/06 13:48:25;;;;;;;12.00;6.60;;;;;;;;;;4996726;28;20133;-86
2021/09/06 13:50:53;;;;;;;11.60;7.00;;;;;;;;;;5014804;28;20049;-85
2021/09/06 13:53:22;;;;;;;10.77;6.00;;;;;;;;;;5030326;28;20360;-82
2021/09/06 13:55:54;;;;;;;18.17;8.15;;;;;;;;;;5017053;28;20466;-81
2021/09/06 13:58:21;;;;;;;12.48;7.00;;;;;;;;;;5015676;28;20045;-81
2021/09/06 14:00:48;;;;;;;15.75;7.80;;;;;;;;;;5007377;28;20085;-82
2021/09/06 14:03:15;;;;;;;15.95;7.57;;;;;;;;;;5010891;28;20405;-82
2021/09/06 14:05:46;;;;;;;17.38;7.82;;;;;;;;;;5032732;28;20107;-81
2021/09/06 14:08:14;;;;;;;12.68;7.40;;;;;;;;;;5003173;28;20563;-79
2021/09/06 14:10:41;;;;;;;16.98;8.25;;;;;;;;;;5010348;28;20072;-78
2021/09/06 14:13:08;;;;;;;16.45;8.20;;;;;;;;;;5011555;28;20510;-78
2021/09/06 14:15:35;;;;;;;13.55;7.40;;;;;;;;;;5010709;28;20551;-78
2021/09/06 14:18:03;;;;;;;11.75;7.10;;;;;;;;;;5012654;28;20042;-79
2021/09/06 14:20:30;;;;;;;13.18;7.20;;;;;;;;;;5016784;28;20088;-81
2021/09/06 14:23:01;;;;;;;30.60;8.88;;;;;;;;;;5030516;28;20045;-81
2021/09/06 14:25:30;;;;;;;16.02;7.18;;;;;;;;;;5020750;28;20457;-82
2021/09/06 14:27:57;;;;;;;13.75;7.75;;;;;;;;;;5028531;28;20041;-84
2021/09/06 14:30:29;;;;;;;29.77;9.23;;;;;;;;;;5006096;28;20054;-86
2021/09/06 14:32:57;;;;;;;14.40;7.15;;;;;;;;;;5024337;28;20046;-86
2021/09/06 14:35:28;;;;;;;13.63;8.60;;;;;;;;;;5014209;28;20049;-86
2021/09/06 14:37:55;;;;;;;16.33;7.50;;;;;;;;;;5029691;28;20045;-83
2021/09/06 14:40:23;;;;;;;20.85;9.57;;;;;;;;;;5031470;28;20120;-84
2021/09/06 14:42:50;;;;;;;14.75;8.68;;;;;;;;;;5031050;28;20129;-84
2021/09/06 14:45:17;;;;;;;15.27;8.10;;;;;;;;;;5039041;28;20053;-84